JZR320 OKKK-OBBI
Flight info
| Callsign | JZR320 |
|---|---|
| Flight time | 0h 45m |
| Altitude | 27000 |
| Route | BOXIK B416 IMDOX P975 LONOS L703 KOBOK |
| Aircraft | A20N/M-SDE2E3FGHIRWXY/LB1 |
Departure
| Time | 2026-05-04 15:26 |
|---|---|
| Airport | Kuwait International Airport (OKKK) |
Arrival
| Time | 2026-05-04 16:11 |
|---|---|
| Airport | Bahrain International Airport (OBBI) |
| Time | Latitude | Longitude | Altitude | Speed | Heading |
|---|---|---|---|---|---|
| 2026-05-04 14:56 | 29.23726 | 47.97211 | 170 ft | 0 kts | 25° |
| 2026-05-04 15:17 | 29.23725 | 47.97210 | 170 ft | 2 kts | 25° |
| 2026-05-04 15:17 | 29.23704 | 47.97199 | 170 ft | 2 kts | 25° |
| 2026-05-04 15:17 | 29.23693 | 47.97193 | 170 ft | 2 kts | 30° |
| 2026-05-04 15:18 | 29.23685 | 47.97183 | 170 ft | 2 kts | 62° |
| 2026-05-04 15:18 | 29.23680 | 47.97171 | 170 ft | 2 kts | 63° |
| 2026-05-04 15:18 | 29.23675 | 47.97159 | 170 ft | 2 kts | 63° |
| 2026-05-04 15:19 | 29.23661 | 47.97138 | 170 ft | 2 kts | 2° |
| 2026-05-04 15:19 | 29.23651 | 47.97141 | 170 ft | 0 kts | 329° |
| 2026-05-04 15:21 | 29.23653 | 47.97140 | 170 ft | 2 kts | 328° |
| 2026-05-04 15:21 | 29.23744 | 47.97086 | 170 ft | 13 kts | 335° |
| 2026-05-04 15:22 | 29.23802 | 47.97034 | 170 ft | 10 kts | 289° |
| 2026-05-04 15:22 | 29.23785 | 47.96956 | 170 ft | 11 kts | 244° |
| 2026-05-04 15:22 | 29.23707 | 47.96767 | 169 ft | 15 kts | 245° |
| 2026-05-04 15:23 | 29.23659 | 47.96650 | 168 ft | 17 kts | 254° |
| 2026-05-04 15:23 | 29.23738 | 47.96567 | 167 ft | 18 kts | 335° |
| 2026-05-04 15:23 | 29.23856 | 47.96505 | 167 ft | 20 kts | 335° |
| 2026-05-04 15:23 | 29.23973 | 47.96443 | 167 ft | 18 kts | 335° |
| 2026-05-04 15:24 | 29.24070 | 47.96280 | 163 ft | 14 kts | 244° |
| 2026-05-04 15:24 | 29.23968 | 47.96195 | 163 ft | 0 kts | 154° |
| 2026-05-04 15:25 | 29.23968 | 47.96196 | 163 ft | 1 kts | 154° |
| 2026-05-04 15:25 | 29.23761 | 47.96311 | 163 ft | 71 kts | 153° |
| 2026-05-04 15:25 | 29.23086 | 47.96666 | 166 ft | 146 kts | 154° |
| 2026-05-04 15:26 | 29.21172 | 47.97746 | 1499 ft | 162 kts | 141° |
| 2026-05-04 15:26 | 29.20401 | 47.98829 | 1853 ft | 192 kts | 120° |
| 2026-05-04 15:26 | 29.18827 | 48.01936 | 2340 ft | 248 kts | 118° |
| 2026-05-04 15:27 | 29.17957 | 48.03682 | 2803 ft | 256 kts | 118° |
| 2026-05-04 15:27 | 29.16178 | 48.07303 | 3806 ft | 265 kts | 118° |
| 2026-05-04 15:28 | 29.14354 | 48.11044 | 4574 ft | 275 kts | 120° |
| 2026-05-04 15:28 | 29.13412 | 48.12935 | 5115 ft | 280 kts | 120° |
| 2026-05-04 15:28 | 29.11448 | 48.16877 | 6264 ft | 290 kts | 120° |
| 2026-05-04 15:29 | 29.10446 | 48.18896 | 6854 ft | 293 kts | 120° |
| 2026-05-04 15:30 | 29.06342 | 48.27185 | 9361 ft | 308 kts | 121° |
| 2026-05-04 15:30 | 29.03032 | 48.33852 | 10603 ft | 344 kts | 122° |
| 2026-05-04 15:31 | 29.00553 | 48.38834 | 11101 ft | 375 kts | 122° |
| 2026-05-04 15:31 | 28.99270 | 48.41418 | 11550 ft | 381 kts | 122° |
| 2026-05-04 15:32 | 28.95272 | 48.49471 | 13086 ft | 396 kts | 122° |
| 2026-05-04 15:32 | 28.92524 | 48.54989 | 14180 ft | 403 kts | 122° |
| 2026-05-04 15:33 | 28.89730 | 48.60593 | 15324 ft | 409 kts | 122° |
| 2026-05-04 15:34 | 28.85449 | 48.69161 | 17024 ft | 419 kts | 122° |
| 2026-05-04 15:34 | 28.83998 | 48.72060 | 17567 ft | 422 kts | 121° |
| 2026-05-04 15:34 | 28.81066 | 48.77914 | 18541 ft | 428 kts | 122° |
| 2026-05-04 15:35 | 28.78140 | 48.83824 | 19504 ft | 432 kts | 121° |
| 2026-05-04 15:35 | 28.76667 | 48.86831 | 19998 ft | 435 kts | 121° |
| 2026-05-04 15:35 | 28.75193 | 48.89847 | 20481 ft | 437 kts | 122° |
| 2026-05-04 15:36 | 28.72214 | 48.95930 | 21458 ft | 442 kts | 122° |
| 2026-05-04 15:36 | 28.70707 | 48.99000 | 21940 ft | 445 kts | 122° |
| 2026-05-04 15:36 | 28.69191 | 49.02085 | 22427 ft | 447 kts | 122° |
| 2026-05-04 15:37 | 28.67664 | 49.05188 | 22912 ft | 450 kts | 122° |
| 2026-05-04 15:37 | 28.66128 | 49.08304 | 23380 ft | 452 kts | 123° |
| 2026-05-04 15:37 | 28.64583 | 49.11439 | 23749 ft | 455 kts | 123° |
| 2026-05-04 15:37 | 28.63023 | 49.14599 | 24072 ft | 459 kts | 123° |
| 2026-05-04 15:38 | 28.61469 | 49.17745 | 24405 ft | 463 kts | 123° |
| 2026-05-04 15:38 | 28.59806 | 49.20884 | 24740 ft | 463 kts | 129° |
| 2026-05-04 15:38 | 28.57738 | 49.23664 | 25053 ft | 459 kts | 141° |
| 2026-05-04 15:38 | 28.55239 | 49.25898 | 25378 ft | 455 kts | 152° |
| 2026-05-04 15:39 | 28.52549 | 49.27781 | 25720 ft | 457 kts | 153° |
| 2026-05-04 15:39 | 28.49938 | 49.29909 | 26056 ft | 463 kts | 147° |
| 2026-05-04 15:39 | 28.44884 | 49.34543 | 26668 ft | 471 kts | 145° |
| 2026-05-04 15:40 | 28.42383 | 49.36959 | 26748 ft | 473 kts | 144° |
| 2026-05-04 15:40 | 28.39894 | 49.39412 | 26772 ft | 473 kts | 144° |
| 2026-05-04 15:40 | 28.37415 | 49.41878 | 26771 ft | 474 kts | 144° |
| 2026-05-04 15:40 | 28.34931 | 49.44357 | 26771 ft | 474 kts | 144° |
| 2026-05-04 15:41 | 28.32447 | 49.46833 | 26771 ft | 475 kts | 144° |
| 2026-05-04 15:41 | 28.29961 | 49.49304 | 26772 ft | 474 kts | 144° |
| 2026-05-04 15:41 | 28.27507 | 49.51734 | 26775 ft | 474 kts | 144° |
| 2026-05-04 15:41 | 28.25026 | 49.54182 | 26771 ft | 474 kts | 144° |
| 2026-05-04 15:42 | 28.22525 | 49.56644 | 26771 ft | 475 kts | 144° |
| 2026-05-04 15:42 | 28.19973 | 49.59029 | 26771 ft | 474 kts | 147° |
| 2026-05-04 15:42 | 28.17370 | 49.61317 | 26772 ft | 473 kts | 148° |
| 2026-05-04 15:42 | 28.14736 | 49.63563 | 26776 ft | 473 kts | 148° |
| 2026-05-04 15:43 | 28.12101 | 49.65786 | 26775 ft | 473 kts | 148° |
| 2026-05-04 15:43 | 28.09462 | 49.68014 | 26779 ft | 473 kts | 148° |
| 2026-05-04 15:43 | 28.06826 | 49.70249 | 26773 ft | 473 kts | 148° |
| 2026-05-04 15:43 | 28.04184 | 49.72469 | 26776 ft | 473 kts | 149° |
| 2026-05-04 15:44 | 28.01498 | 49.74622 | 26775 ft | 472 kts | 150° |
| 2026-05-04 15:44 | 27.98789 | 49.76731 | 26775 ft | 472 kts | 151° |
| 2026-05-04 15:44 | 27.96073 | 49.78820 | 26777 ft | 472 kts | 151° |
| 2026-05-04 15:44 | 27.93384 | 49.80883 | 26779 ft | 472 kts | 151° |
| 2026-05-04 15:45 | 27.90659 | 49.82978 | 26757 ft | 472 kts | 151° |
| 2026-05-04 15:45 | 27.87946 | 49.85071 | 26780 ft | 473 kts | 150° |
| 2026-05-04 15:45 | 27.85229 | 49.87171 | 26776 ft | 473 kts | 150° |
| 2026-05-04 15:45 | 27.82516 | 49.89273 | 26774 ft | 473 kts | 150° |
| 2026-05-04 15:46 | 27.79805 | 49.91373 | 26729 ft | 473 kts | 150° |
| 2026-05-04 15:46 | 27.77096 | 49.93471 | 26411 ft | 471 kts | 150° |
| 2026-05-04 15:46 | 27.74394 | 49.95564 | 26051 ft | 470 kts | 150° |
| 2026-05-04 15:46 | 27.71699 | 49.97649 | 25667 ft | 468 kts | 150° |
| 2026-05-04 15:47 | 27.69022 | 49.99719 | 25289 ft | 465 kts | 150° |
| 2026-05-04 15:47 | 27.66365 | 50.01773 | 24919 ft | 459 kts | 150° |
| 2026-05-04 15:47 | 27.63784 | 50.03768 | 24558 ft | 451 kts | 150° |
| 2026-05-04 15:47 | 27.61210 | 50.05756 | 24145 ft | 446 kts | 150° |
| 2026-05-04 15:48 | 27.58662 | 50.07721 | 23693 ft | 441 kts | 150° |
| 2026-05-04 15:48 | 27.56136 | 50.09665 | 23227 ft | 437 kts | 149° |
| 2026-05-04 15:48 | 27.51156 | 50.13496 | 22180 ft | 429 kts | 149° |
| 2026-05-04 15:49 | 27.48703 | 50.15382 | 21682 ft | 425 kts | 149° |
| 2026-05-04 15:49 | 27.46269 | 50.17252 | 21176 ft | 421 kts | 149° |
| 2026-05-04 15:49 | 27.43871 | 50.19116 | 20695 ft | 417 kts | 148° |
| 2026-05-04 15:49 | 27.41508 | 50.21003 | 20218 ft | 414 kts | 147° |
| 2026-05-04 15:50 | 27.39186 | 50.22887 | 19745 ft | 410 kts | 147° |
| 2026-05-04 15:50 | 27.36908 | 50.24745 | 19282 ft | 407 kts | 147° |
| 2026-05-04 15:50 | 27.34629 | 50.26604 | 18821 ft | 403 kts | 147° |
| 2026-05-04 15:50 | 27.32362 | 50.28451 | 18368 ft | 400 kts | 146° |
| 2026-05-04 15:51 | 27.30119 | 50.30273 | 17905 ft | 396 kts | 146° |
| 2026-05-04 15:51 | 27.28640 | 50.31472 | 17563 ft | 394 kts | 146° |
| 2026-05-04 15:51 | 27.25676 | 50.33871 | 16884 ft | 390 kts | 146° |
| 2026-05-04 15:51 | 27.24221 | 50.35046 | 16552 ft | 388 kts | 146° |
| 2026-05-04 15:52 | 27.21301 | 50.37404 | 15893 ft | 384 kts | 146° |
| 2026-05-04 15:52 | 27.19132 | 50.39153 | 15410 ft | 381 kts | 145° |
| 2026-05-04 15:52 | 27.16990 | 50.40881 | 14937 ft | 378 kts | 145° |
| 2026-05-04 15:52 | 27.15577 | 50.42020 | 14617 ft | 374 kts | 145° |
| 2026-05-04 15:53 | 27.13488 | 50.43705 | 14167 ft | 366 kts | 145° |
| 2026-05-04 15:53 | 27.11446 | 50.45351 | 13715 ft | 357 kts | 145° |
| 2026-05-04 15:53 | 27.09448 | 50.46961 | 13224 ft | 348 kts | 144° |
| 2026-05-04 15:53 | 27.07503 | 50.48527 | 12724 ft | 341 kts | 144° |
| 2026-05-04 15:54 | 27.05600 | 50.50059 | 12231 ft | 334 kts | 144° |
| 2026-05-04 15:54 | 27.03723 | 50.51570 | 11749 ft | 328 kts | 144° |
| 2026-05-04 15:54 | 27.01899 | 50.53036 | 11276 ft | 324 kts | 144° |
| 2026-05-04 15:54 | 27.00069 | 50.54505 | 10803 ft | 322 kts | 146° |
| 2026-05-04 15:55 | 26.98144 | 50.55761 | 10335 ft | 320 kts | 159° |
| 2026-05-04 15:55 | 26.96016 | 50.56404 | 9888 ft | 315 kts | 175° |
| 2026-05-04 15:55 | 26.93843 | 50.56590 | 9573 ft | 312 kts | 180° |
| 2026-05-04 15:55 | 26.91678 | 50.56685 | 9276 ft | 311 kts | 181° |
| 2026-05-04 15:56 | 26.89509 | 50.56769 | 8973 ft | 311 kts | 180° |
| 2026-05-04 15:56 | 26.87361 | 50.57083 | 8677 ft | 312 kts | 166° |
| 2026-05-04 15:56 | 26.85307 | 50.57890 | 8384 ft | 313 kts | 159° |
| 2026-05-04 15:56 | 26.83314 | 50.58857 | 8097 ft | 312 kts | 156° |
| 2026-05-04 15:57 | 26.81342 | 50.59869 | 7972 ft | 311 kts | 156° |
| 2026-05-04 15:57 | 26.79395 | 50.60887 | 8000 ft | 312 kts | 156° |
| 2026-05-04 15:57 | 26.77426 | 50.61924 | 8006 ft | 312 kts | 156° |
| 2026-05-04 15:57 | 26.75450 | 50.62967 | 8005 ft | 313 kts | 156° |
| 2026-05-04 15:58 | 26.73479 | 50.64009 | 8002 ft | 313 kts | 156° |
| 2026-05-04 15:58 | 26.71511 | 50.65050 | 8006 ft | 313 kts | 155° |
| 2026-05-04 15:58 | 26.69541 | 50.66093 | 8002 ft | 313 kts | 155° |
| 2026-05-04 15:58 | 26.67567 | 50.67138 | 8003 ft | 313 kts | 155° |
| 2026-05-04 15:59 | 26.65599 | 50.68179 | 8008 ft | 313 kts | 155° |
| 2026-05-04 15:59 | 26.63656 | 50.69206 | 7938 ft | 313 kts | 155° |
| 2026-05-04 15:59 | 26.61679 | 50.70251 | 7657 ft | 313 kts | 155° |
| 2026-05-04 15:59 | 26.59712 | 50.71291 | 7373 ft | 312 kts | 155° |
| 2026-05-04 16:00 | 26.57753 | 50.72326 | 7090 ft | 311 kts | 155° |
| 2026-05-04 16:00 | 26.55799 | 50.73358 | 6816 ft | 310 kts | 155° |
| 2026-05-04 16:00 | 26.53850 | 50.74387 | 6540 ft | 310 kts | 155° |
| 2026-05-04 16:00 | 26.51899 | 50.75416 | 6299 ft | 308 kts | 155° |
| 2026-05-04 16:01 | 26.49961 | 50.76438 | 6063 ft | 308 kts | 155° |
| 2026-05-04 16:01 | 26.48029 | 50.77457 | 5826 ft | 306 kts | 154° |
| 2026-05-04 16:01 | 26.46128 | 50.78459 | 5579 ft | 305 kts | 154° |
| 2026-05-04 16:01 | 26.44208 | 50.79470 | 5279 ft | 304 kts | 154° |
| 2026-05-04 16:02 | 26.42296 | 50.80477 | 4970 ft | 302 kts | 154° |
| 2026-05-04 16:02 | 26.40398 | 50.81477 | 4667 ft | 300 kts | 154° |
| 2026-05-04 16:02 | 26.36703 | 50.83420 | 4046 ft | 285 kts | 153° |
| 2026-05-04 16:03 | 26.34936 | 50.84349 | 3740 ft | 275 kts | 153° |
| 2026-05-04 16:03 | 26.33231 | 50.85246 | 3430 ft | 267 kts | 153° |
| 2026-05-04 16:03 | 26.31575 | 50.86116 | 3137 ft | 260 kts | 153° |
| 2026-05-04 16:03 | 26.29965 | 50.86962 | 2830 ft | 253 kts | 153° |
| 2026-05-04 16:04 | 26.28394 | 50.87788 | 2551 ft | 247 kts | 153° |
| 2026-05-04 16:04 | 26.25147 | 50.88474 | 2119 ft | 232 kts | 199° |
| 2026-05-04 16:04 | 26.23733 | 50.87783 | 2023 ft | 221 kts | 211° |
| 2026-05-04 16:05 | 26.22398 | 50.86941 | 2005 ft | 220 kts | 212° |
| 2026-05-04 16:05 | 26.21073 | 50.86073 | 2003 ft | 220 kts | 213° |
| 2026-05-04 16:05 | 26.18950 | 50.83818 | 2008 ft | 209 kts | 258° |
| 2026-05-04 16:06 | 26.18721 | 50.82244 | 2010 ft | 205 kts | 271° |
| 2026-05-04 16:06 | 26.18806 | 50.78332 | 2013 ft | 167 kts | 293° |
| 2026-05-04 16:07 | 26.19453 | 50.76800 | 2005 ft | 162 kts | 306° |
| 2026-05-04 16:07 | 26.21232 | 50.73592 | 1789 ft | 161 kts | 308° |
| 2026-05-04 16:08 | 26.21824 | 50.72556 | 1589 ft | 160 kts | 307° |
| 2026-05-04 16:08 | 26.23517 | 50.69593 | 995 ft | 147 kts | 306° |
| 2026-05-04 16:09 | 26.24579 | 50.67737 | 661 ft | 140 kts | 304° |
| 2026-05-04 16:09 | 26.25615 | 50.65928 | 308 ft | 136 kts | 304° |
| 2026-05-04 16:10 | 26.26613 | 50.64179 | 25 ft | 127 kts | 303° |
| 2026-05-04 16:11 | 26.27452 | 50.62645 | 21 ft | 19 kts | 227° |
| 2026-05-04 16:11 | 26.27367 | 50.62588 | 20 ft | 11 kts | 191° |
| 2026-05-04 16:12 | 26.27273 | 50.62707 | 21 ft | 5 kts | 124° |
| 2026-05-04 16:12 | 26.27201 | 50.62823 | 23 ft | 7 kts | 124° |
| 2026-05-04 16:13 | 26.27146 | 50.62910 | 25 ft | 6 kts | 133° |
| 2026-05-04 16:13 | 26.27067 | 50.63044 | 28 ft | 16 kts | 120° |
| 2026-05-04 16:14 | 26.26950 | 50.63239 | 23 ft | 13 kts | 121° |
| 2026-05-04 16:14 | 26.26855 | 50.63385 | 23 ft | 11 kts | 161° |
| 2026-05-04 16:15 | 26.26741 | 50.63391 | 26 ft | 2 kts | 118° |
| 2026-05-04 16:16 | 26.26594 | 50.63553 | 27 ft | 10 kts | 212° |
| 2026-05-04 16:17 | 26.26543 | 50.63516 | 25 ft | 0 kts | 214° |